createdAt,value
2023-03-06T05:35:22.806Z,99599.78
2023-03-06T05:38:26.119Z,99601.53
2023-03-06T05:41:28.598Z,99604.13
2023-03-06T05:44:33.220Z,99596.37
2023-03-06T05:47:35.767Z,99601.53
2023-03-06T05:50:38.481Z,99610.13
2023-03-06T05:53:41.900Z,99610.13
2023-03-06T05:56:44.569Z,99611.84
2023-03-06T05:59:48.148Z,99604.09
2023-03-06T06:02:51.331Z,99608.41
2023-03-06T06:05:54.518Z,99612.69
2023-03-06T06:08:57.476Z,99611.84
2023-03-06T06:12:13.887Z,99607.53
2023-03-06T06:15:24.442Z,99608.41
2023-03-06T06:18:27.549Z,99613.56
2023-03-06T06:21:30.304Z,99609.25
2023-03-06T06:24:33.198Z,99619.56
2023-03-06T06:27:36.031Z,99623.03
2023-03-06T06:30:39.188Z,99627.31
2023-03-06T06:33:42.421Z,99622.16
2023-03-06T06:36:45.201Z,99626.44
2023-03-06T06:39:48.277Z,99623.88
2023-03-06T06:42:57.705Z,99630.72
2023-03-06T06:49:22.074Z,99623.84
2023-03-06T06:52:27.746Z,99626.41
2023-03-06T06:55:30.386Z,99631.47
2023-03-06T07:05:32.334Z,99632.31
2023-03-06T07:08:34.921Z,99630.59
2023-03-06T07:14:59.727Z,99616.84
2023-03-06T07:18:26.548Z,99609.03
2023-03-06T07:21:29.692Z,99622.72
2023-03-06T07:24:34.902Z,99629.50
2023-03-06T07:27:37.590Z,99628.59
2023-03-06T07:30:43.873Z,99633.84
2023-03-06T07:33:48.540Z,99632.09
2023-03-06T07:36:51.377Z,99636.53
2023-03-06T07:39:53.931Z,99633.81
2023-03-06T07:43:09.241Z,99637.25
2023-03-06T07:46:19.625Z,99643.31
2023-03-06T07:49:22.291Z,99656.28
2023-03-06T07:55:43.903Z,99643.34
2023-03-06T07:58:47.009Z,99649.38
2023-03-06T08:01:49.760Z,99639.03
2023-03-06T08:08:13.514Z,99634.63
2023-03-06T08:11:17.378Z,99645.88
2023-03-06T08:14:20.264Z,99640.66
2023-03-06T08:17:22.866Z,99651.78
2023-03-06T08:20:26.622Z,99650.94
2023-03-06T08:23:29.415Z,99660.44
2023-03-06T08:26:33.345Z,99655.09
2023-03-06T08:29:35.845Z,99660.56
2023-03-06T08:32:38.608Z,99651.81
2023-03-06T08:35:41.254Z,99651.97
2023-03-06T08:38:43.747Z,99652.75
2023-03-06T08:41:46.304Z,99649.06
2023-03-06T08:44:51.302Z,99653.56
2023-03-06T08:47:54.000Z,99635.87
2023-03-06T08:51:11.057Z,99641.09
2023-03-06T08:54:26.626Z,99642.81
2023-03-06T08:57:36.664Z,99647.00
2023-03-06T09:00:39.897Z,99641.63
2023-03-06T09:03:42.944Z,99642.56
2023-03-06T09:06:45.641Z,99637.16
2023-03-06T09:13:04.942Z,99641.50
2023-03-06T09:16:09.099Z,99628.34
2023-03-06T09:19:11.815Z,99619.13
2023-03-06T09:22:14.423Z,99622.38
2023-03-06T09:25:20.558Z,99618.94
2023-03-06T09:28:24.391Z,99614.38
2023-03-06T09:31:27.095Z,99613.47
2023-03-06T09:34:29.972Z,99603.78
2023-03-06T09:37:32.921Z,99613.44
2023-03-06T09:40:46.056Z,99600.38
2023-03-06T09:43:49.345Z,99601.38
2023-03-06T09:47:25.802Z,99606.19
2023-03-06T09:50:38.494Z,99601.91
2023-03-06T09:54:02.929Z,99600.62
2023-03-06T09:57:09.510Z,99600.13
2023-03-06T10:00:17.064Z,99596.13
2023-03-06T10:03:25.106Z,99591.69
2023-03-06T10:06:33.556Z,99587.50
2023-03-06T10:09:48.188Z,99593.22
2023-03-06T10:13:03.899Z,99585.38
2023-03-06T10:16:25.463Z,99593.22
2023-03-06T10:19:35.755Z,99580.19
2023-03-06T10:23:24.274Z,99581.06
2023-03-06T10:26:28.738Z,99575.91
2023-03-06T10:30:01.176Z,99574.50
2023-03-06T10:33:12.225Z,99573.87
2023-03-06T10:36:18.782Z,99556.12
2023-03-06T10:39:23.099Z,99546.72
2023-03-06T10:42:27.014Z,99538.09
2023-03-06T10:45:40.557Z,99545.47
2023-03-06T10:48:58.487Z,99539.44
2023-03-06T10:52:03.661Z,99548.44
2023-03-06T10:55:30.048Z,99542.84
2023-03-06T10:58:33.018Z,99531.94
2023-03-06T11:01:35.790Z,99526.75
2023-03-06T11:04:38.416Z,99516.59
2023-03-06T11:08:02.358Z,99522.53
2023-03-06T11:11:11.535Z,99522.63
2023-03-06T11:14:17.091Z,99507.00
2023-03-06T11:17:30.231Z,99500.19
2023-03-06T11:20:52.012Z,99490.34
2023-03-06T11:23:56.488Z,99481.66
2023-03-06T11:27:00.860Z,99471.19
2023-03-06T11:30:06.253Z,99468.22
2023-03-06T11:33:11.698Z,99460.28
2023-03-06T11:36:17.544Z,99459.47
2023-03-06T11:39:40.859Z,99449.81
2023-03-06T11:42:53.086Z,99437.28
2023-03-06T11:46:12.292Z,99435.53
2023-03-06T11:49:33.269Z,99416.91
2023-03-06T11:52:56.254Z,99413.25
2023-03-06T11:56:20.792Z,99409.84
2023-03-06T11:59:34.749Z,99404.66
2023-03-06T12:02:43.401Z,99400.06
2023-03-06T12:05:48.182Z,99386.28
2023-03-06T12:09:28.126Z,99382.75
2023-03-06T12:12:42.524Z,99373.50
2023-03-06T12:15:48.010Z,99370.50
2023-03-06T12:18:53.434Z,99367.75
2023-03-06T12:22:08.370Z,99357.59
2023-03-06T12:25:21.901Z,99351.75
2023-03-06T12:28:46.291Z,99340.84
2023-03-06T12:32:10.531Z,99348.88
2023-03-06T12:35:32.021Z,99348.19
2023-03-06T12:38:47.727Z,99343.34
2023-03-06T12:41:53.089Z,99340.75
2023-03-06T12:45:13.806Z,99327.53
2023-03-06T12:48:23.568Z,99330.63
2023-03-06T12:51:26.151Z,99324.94
2023-03-06T12:54:29.976Z,99326.09
2023-03-06T12:57:32.521Z,99333.25
2023-03-06T13:00:35.152Z,99333.53
2023-03-06T13:03:56.439Z,99337.97
2023-03-06T13:07:01.904Z,99324.63
2023-03-06T13:10:10.266Z,99332.22
2023-03-06T13:13:31.952Z,99326.97
2023-03-06T13:16:34.585Z,99318.22
2023-03-06T13:19:37.121Z,99314.44
2023-03-06T13:22:40.641Z,99319.47
2023-03-06T13:25:47.274Z,99319.44
2023-03-06T13:28:50.664Z,99316.56
2023-03-06T13:31:53.178Z,99311.41
2023-03-06T13:34:55.684Z,99310.44
2023-03-06T13:37:59.147Z,99307.06
2023-03-06T13:41:23.600Z,99295.13
2023-03-06T13:44:26.070Z,99290.41
2023-03-06T13:47:39.707Z,99290.34
2023-03-06T13:50:51.645Z,99284.91
2023-03-06T13:54:32.917Z,99286.78
2023-03-06T13:57:58.255Z,99275.63
2023-03-06T14:01:07.156Z,99276.66
2023-03-06T14:04:15.676Z,99272.25
2023-03-06T14:07:28.240Z,99268.50
2023-03-06T14:10:31.699Z,99254.66
2023-03-06T14:13:45.448Z,99251.41
2023-03-06T14:16:50.666Z,99254.00
2023-03-06T14:19:53.939Z,99259.50
2023-03-06T14:23:14.723Z,99250.75
2023-03-06T14:26:24.516Z,99250.22
2023-03-06T14:29:28.694Z,99241.09
2023-03-06T14:32:31.271Z,99236.38
2023-03-06T14:35:34.576Z,99231.94
2023-03-06T14:38:42.669Z,99228.25
2023-03-06T14:41:45.206Z,99229.91
2023-03-06T14:44:48.800Z,99231.63
2023-03-06T14:47:52.244Z,99222.16
2023-03-06T14:50:55.989Z,99219.38
2023-03-06T14:54:07.055Z,99222.63
2023-03-06T14:57:14.013Z,99225.31
2023-03-06T15:00:19.739Z,99226.56
2023-03-06T15:03:33.810Z,99217.38
2023-03-06T15:06:39.697Z,99220.91
2023-03-06T15:09:45.348Z,99220.03
2023-03-06T15:12:47.996Z,99217.03
2023-03-06T15:15:58.910Z,99208.75
2023-03-06T15:19:02.345Z,99212.28
2023-03-06T15:22:04.943Z,99215.00
2023-03-06T15:25:16.248Z,99204.53
2023-03-06T15:28:38.700Z,99203.13
2023-03-06T15:31:42.284Z,99206.47
2023-03-06T15:34:44.895Z,99207.13
2023-03-06T15:37:47.375Z,99203.81
2023-03-06T15:40:57.291Z,99203.81
2023-03-06T15:44:00.773Z,99203.06
2023-03-06T15:47:08.642Z,99204.38
2023-03-06T15:50:24.477Z,99207.59
2023-03-06T15:53:27.088Z,99213.72
2023-03-06T15:56:30.700Z,99203.75
2023-03-06T15:59:33.619Z,99206.00
